Time;durP1;ratioP1;P1;durP2;ratioP2;P2;SDS_P1;SDS_P2;PMS_P1;PMS_P2;Temp;Humidity;BMP_temperature;BMP_pressure;BME280_temperature;BME280_humidity;BME280_pressure;Samples;Min_cycle;Max_cycle;Signal;HPM_P1;HPM_P2
2023/01/02 00:00:54;;;;;;;4.40;2.37;;;14.40;99.90;;;;;;5079357;28;20232;-78
2023/01/02 00:03:19;;;;;;;2.63;2.40;;;14.40;99.90;;;;;;5082799;28;20181;-80
2023/01/02 00:05:45;;;;;;;4.83;2.00;;;14.40;99.90;;;;;;5077418;28;20327;-79
2023/01/02 00:08:10;;;;;;;7.93;2.87;;;14.50;99.90;;;;;;5091634;28;20258;-79
2023/01/02 00:10:36;;;;;;;6.50;2.40;;;14.60;99.90;;;;;;5099040;28;20174;-78
2023/01/02 00:13:02;;;;;;;5.00;2.90;;;14.60;99.90;;;;;;5077469;28;20208;-80
2023/01/02 00:15:27;;;;;;;7.00;2.83;;;14.70;99.90;;;;;;5076427;28;20197;-80
2023/01/02 00:17:53;;;;;;;3.67;2.23;;;14.80;99.90;;;;;;5073874;28;20642;-79
2023/01/02 00:20:18;;;;;;;2.70;1.90;;;14.80;99.90;;;;;;5090625;28;20174;-79
2023/01/02 00:22:44;;;;;;;4.53;2.40;;;14.80;99.90;;;;;;5081316;28;20237;-80
2023/01/02 00:25:09;;;;;;;6.60;2.30;;;14.90;99.90;;;;;;5074154;28;20328;-78
2023/01/02 00:27:35;;;;;;;6.03;2.10;;;14.80;99.90;;;;;;5075359;28;20253;-79
2023/01/02 00:30:00;;;;;;;9.77;2.33;;;14.80;99.90;;;;;;5086582;28;20590;-80
2023/01/02 00:32:26;;;;;;;3.03;1.80;;;14.80;99.90;;;;;;5086862;28;20224;-79
2023/01/02 00:34:51;;;;;;;4.87;2.30;;;14.90;99.90;;;;;;5074745;28;20166;-78
2023/01/02 00:37:17;;;;;;;5.30;2.10;;;14.90;99.90;;;;;;5074510;28;20170;-79
2023/01/02 00:39:43;;;;;;;6.30;2.20;;;14.90;99.90;;;;;;5073846;28;20184;-81
2023/01/02 00:42:08;;;;;;;2.73;1.70;;;14.90;99.90;;;;;;5084512;28;20233;-79
2023/01/02 00:44:34;;;;;;;3.90;3.13;;;14.80;99.90;;;;;;5102531;28;20241;-80
2023/01/02 00:46:59;;;;;;;3.40;2.20;;;14.80;99.90;;;;;;5102725;28;20261;-80
2023/01/02 00:49:25;;;;;;;5.43;1.90;;;14.90;99.90;;;;;;5103495;28;20173;-78
2023/01/02 00:51:50;;;;;;;6.47;2.90;;;14.80;99.90;;;;;;5097982;28;20241;-79
2023/01/02 00:54:16;;;;;;;6.73;1.97;;;14.80;99.90;;;;;;5093977;28;20170;-80
2023/01/02 00:56:42;;;;;;;6.07;1.90;;;14.70;99.90;;;;;;5083609;28;20186;-79
2023/01/02 00:59:07;;;;;;;6.70;1.87;;;14.80;99.90;;;;;;5093013;28;20162;-79
2023/01/02 01:01:33;;;;;;;4.20;2.23;;;14.80;99.90;;;;;;5078003;28;20189;-79
2023/01/02 01:04:00;;;;;;;8.40;2.17;;;14.80;99.90;;;;;;5081689;28;20174;-79
2023/01/02 01:06:25;;;;;;;3.40;1.63;;;14.90;99.90;;;;;;5079109;28;20190;-79
2023/01/02 01:08:51;;;;;;;13.27;2.40;;;14.80;99.90;;;;;;5075090;28;20444;-79
2023/01/02 01:11:17;;;;;;;2.10;1.83;;;14.80;99.90;;;;;;5079812;28;20631;-79
2023/01/02 01:13:43;;;;;;;6.83;2.43;;;14.80;99.90;;;;;;5078194;28;20190;-79
2023/01/02 01:16:14;;;;;;;7.73;2.20;;;14.90;99.90;;;;;;5079553;28;20447;-79
2023/01/02 01:18:41;;;;;;;2.50;1.93;;;14.90;99.90;;;;;;5097291;28;20460;-79
2023/01/02 01:21:09;;;;;;;5.40;2.10;;;14.90;99.90;;;;;;5099247;28;20465;-79
2023/01/02 01:23:34;;;;;;;2.47;2.00;;;14.90;99.90;;;;;;5101432;28;20406;-79
2023/01/02 01:26:05;;;;;;;8.43;1.80;;;15.00;99.90;;;;;;5101813;28;20435;-80
2023/01/02 01:28:30;;;;;;;4.17;1.80;;;15.00;99.90;;;;;;5101768;28;20181;-79
2023/01/02 01:31:07;;;;;;;3.17;2.03;;;15.00;99.90;;;;;;5093500;28;20424;-79
2023/01/02 01:33:33;;;;;;;6.77;2.20;;;14.90;99.90;;;;;;5082238;28;20197;-79
2023/01/02 01:36:11;;;;;;;7.20;2.20;;;14.90;99.90;;;;;;5082023;28;20462;-79
2023/01/02 01:38:37;;;;;;;3.50;1.60;;;15.00;99.90;;;;;;5094194;28;20413;-79
2023/01/02 01:41:03;;;;;;;5.73;2.40;;;14.90;99.90;;;;;;5077407;28;20408;-78
2023/01/02 01:43:37;;;;;;;3.07;1.90;;;15.00;99.90;;;;;;5091649;28;20185;-79
2023/01/02 01:46:24;;;;;;;4.20;1.97;;;15.00;99.90;;;;;;5089478;28;20455;-79
2023/01/02 01:48:57;;;;;;;3.63;2.10;;;14.90;99.90;;;;;;5092292;28;20420;-80
2023/01/02 01:51:24;;;;;;;6.50;2.10;;;15.00;99.90;;;;;;5098023;28;20452;-79
2023/01/02 01:53:54;;;;;;;3.23;2.30;;;15.00;99.90;;;;;;5084106;28;20420;-78
2023/01/02 01:56:21;;;;;;;5.13;2.43;;;14.80;99.90;;;;;;5085083;28;20439;-79
2023/01/02 01:58:48;;;;;;;8.00;2.47;;;14.90;99.90;;;;;;5086605;28;20428;-80
2023/01/02 02:01:15;;;;;;;5.20;2.00;;;14.90;99.90;;;;;;5080832;28;20429;-80
2023/01/02 02:03:44;;;;;;;12.47;2.70;;;14.90;99.90;;;;;;5079650;28;20424;-80
2023/01/02 02:06:09;;;;;;;5.80;1.80;;;14.90;99.90;;;;;;5100847;28;20427;-78
2023/01/02 02:08:40;;;;;;;3.23;1.53;;;15.00;99.90;;;;;;5105035;28;20466;-80
2023/01/02 02:11:06;;;;;;;2.97;1.93;;;15.00;99.90;;;;;;5107023;28;20174;-79
2023/01/02 02:13:33;;;;;;;3.43;1.70;;;15.00;99.90;;;;;;5098762;28;20474;-80
2023/01/02 02:16:17;;;;;;;4.83;2.13;;;15.00;99.90;;;;;;5096094;28;20431;-80
2023/01/02 02:18:49;;;;;;;2.83;1.70;;;14.90;99.90;;;;;;5083616;28;20435;-79
2023/01/02 02:21:41;;;;;;;6.70;1.83;;;14.90;99.90;;;;;;5085494;28;20408;-79
2023/01/02 02:24:12;;;;;;;2.67;1.67;;;14.90;99.90;;;;;;5083421;28;20401;-78
2023/01/02 02:27:02;;;;;;;7.17;2.13;;;14.90;99.90;;;;;;5096667;28;20494;-79
2023/01/02 02:30:06;;;;;;;4.90;2.67;;;14.80;99.90;;;;;;5105792;28;20408;-79
2023/01/02 02:32:58;;;;;;;3.17;2.50;;;14.90;99.90;;;;;;5106427;28;20482;-82
2023/01/02 02:36:03;;;;;;;11.13;2.80;;;14.80;99.90;;;;;;5103521;28;20464;-82
2023/01/02 02:38:40;;;;;;;5.17;2.17;;;14.80;99.90;;;;;;5076240;28;20426;-80
2023/01/02 02:41:18;;;;;;;4.83;2.80;;;14.80;99.90;;;;;;5096004;28;20400;-79
2023/01/02 02:43:59;;;;;;;8.13;2.40;;;14.70;99.90;;;;;;5106542;28;20392;-79
2023/01/02 02:46:39;;;;;;;5.10;2.10;;;14.70;99.90;;;;;;5101705;28;20791;-79
2023/01/02 02:49:27;;;;;;;5.20;2.00;;;14.70;99.90;;;;;;5101147;28;20419;-79
2023/01/02 02:52:10;;;;;;;6.50;3.07;;;14.80;99.90;;;;;;5102261;28;20477;-78
2023/01/02 02:54:45;;;;;;;3.27;2.30;;;14.80;99.90;;;;;;5099905;28;20443;-80
2023/01/02 02:57:12;;;;;;;6.87;1.87;;;14.70;99.90;;;;;;5095812;28;20798;-79
2023/01/02 02:59:40;;;;;;;2.83;1.50;;;14.60;99.90;;;;;;5100560;28;20412;-78
2023/01/02 03:02:05;;;;;;;3.90;2.00;;;14.70;99.90;;;;;;5101617;28;20416;-79
2023/01/02 03:04:31;;;;;;;4.37;2.30;;;14.70;99.90;;;;;;5105404;28;20411;-80
2023/01/02 03:07:02;;;;;;;2.33;2.13;;;14.70;99.90;;;;;;5105252;28;20193;-80
2023/01/02 03:09:48;;;;;;;3.17;2.20;;;14.70;99.90;;;;;;5090947;28;20178;-78
2023/01/02 03:12:43;;;;;;;7.10;2.13;;;14.70;99.90;;;;;;5082276;28;20516;-79
2023/01/02 03:15:20;;;;;;;3.43;1.90;;;14.70;99.90;;;;;;5077847;28;20429;-81
2023/01/02 03:18:11;;;;;;;2.73;1.73;;;14.60;99.90;;;;;;5114938;28;20950;-79
2023/01/02 03:20:40;;;;;;;6.10;2.40;;;14.60;99.90;;;;;;5079396;28;20789;-80
2023/01/02 03:23:16;;;;;;;6.20;1.90;;;14.70;99.90;;;;;;5084880;28;20421;-79
2023/01/02 03:25:43;;;;;;;6.20;2.30;;;14.70;99.90;;;;;;5079327;28;20432;-80
2023/01/02 03:28:10;;;;;;;3.50;1.60;;;14.60;99.90;;;;;;5081721;28;20922;-79
2023/01/02 03:30:38;;;;;;;3.80;2.17;;;14.60;99.90;;;;;;5081562;28;20469;-79
2023/01/02 03:33:09;;;;;;;5.00;2.70;;;14.70;99.90;;;;;;5081680;28;20478;-81
2023/01/02 03:35:48;;;;;;;3.97;1.77;;;14.60;99.90;;;;;;5079255;28;20434;-79
2023/01/02 03:38:21;;;;;;;3.87;2.00;;;14.70;99.90;;;;;;5080462;28;20396;-78
2023/01/02 03:40:56;;;;;;;3.03;1.67;;;14.70;99.90;;;;;;5094703;28;20415;-80
2023/01/02 03:43:30;;;;;;;3.20;2.20;;;14.60;99.90;;;;;;5097083;28;20396;-79
2023/01/02 03:46:03;;;;;;;4.03;2.10;;;14.50;99.90;;;;;;5097640;28;20430;-80
2023/01/02 03:48:50;;;;;;;5.10;2.27;;;14.60;99.90;;;;;;5096226;28;20892;-78
2023/01/02 03:51:16;;;;;;;3.13;2.17;;;14.60;99.90;;;;;;5092484;28;20420;-78
2023/01/02 03:53:42;;;;;;;5.63;2.50;;;14.70;99.90;;;;;;5081440;28;20447;-79
2023/01/02 03:56:21;;;;;;;5.63;1.80;;;14.70;99.90;;;;;;5076084;28;20229;-79
2023/01/02 03:59:02;;;;;;;6.20;1.70;;;14.70;99.90;;;;;;5081005;28;20413;-78
2023/01/02 04:01:51;;;;;;;3.07;1.90;;;14.70;99.90;;;;;;5084474;28;20415;-79
2023/01/02 04:04:43;;;;;;;4.60;1.93;;;14.80;99.90;;;;;;5055697;28;20971;-79
2023/01/02 04:07:15;;;;;;;2.57;1.90;;;14.70;99.90;;;;;;5084746;28;20436;-79
2023/01/02 04:09:42;;;;;;;9.13;3.00;;;14.60;99.90;;;;;;5097692;28;20421;-79
2023/01/02 04:12:11;;;;;;;7.60;3.37;;;14.60;99.90;;;;;;5081670;28;20467;-79
2023/01/02 04:14:42;;;;;;;5.27;2.50;;;14.60;99.90;;;;;;5075493;28;20466;-80
2023/01/02 04:17:09;;;;;;;5.17;2.20;;;14.60;99.90;;;;;;5074027;28;20423;-80
2023/01/02 04:19:40;;;;;;;5.10;2.17;;;14.60;99.90;;;;;;5076622;28;20397;-78
2023/01/02 04:22:12;;;;;;;3.17;1.80;;;14.60;99.90;;;;;;5097916;28;20411;-81
2023/01/02 04:24:42;;;;;;;4.67;2.00;;;14.60;99.90;;;;;;5097124;28;20413;-79
2023/01/02 04:27:27;;;;;;;3.83;1.90;;;14.60;99.90;;;;;;5104287;28;20585;-79
2023/01/02 04:29:54;;;;;;;5.30;1.87;;;14.50;99.90;;;;;;5103561;28;20483;-79
2023/01/02 04:32:25;;;;;;;5.00;1.87;;;14.60;99.90;;;;;;5095848;28;20452;-82
2023/01/02 04:34:52;;;;;;;4.50;2.17;;;14.60;99.90;;;;;;5073295;28;20392;-80
2023/01/02 04:37:33;;;;;;;4.77;2.30;;;14.50;99.90;;;;;;5082682;28;20453;-80
2023/01/02 04:40:04;;;;;;;6.93;2.20;;;14.50;99.90;;;;;;5073311;28;20423;-78
2023/01/02 04:42:30;;;;;;;4.60;1.90;;;14.50;99.90;;;;;;5076895;28;20427;-79
2023/01/02 04:44:55;;;;;;;6.50;2.63;;;14.50;99.90;;;;;;5079525;28;20425;-79
2023/01/02 04:47:21;;;;;;;3.67;1.90;;;14.50;99.90;;;;;;5087251;28;20204;-79
2023/01/02 04:49:46;;;;;;;3.73;1.60;;;14.50;99.90;;;;;;5100117;28;20188;-78
2023/01/02 04:52:12;;;;;;;6.63;2.10;;;14.50;99.90;;;;;;5101764;28;20205;-79
2023/01/02 04:54:37;;;;;;;5.50;2.57;;;14.50;99.90;;;;;;5098874;28;20170;-79
2023/01/02 04:57:03;;;;;;;3.93;2.13;;;14.50;99.90;;;;;;5093548;28;20197;-79
2023/01/02 04:59:28;;;;;;;5.60;2.20;;;14.50;99.90;;;;;;5093138;28;20165;-80
2023/01/02 05:01:54;;;;;;;4.33;2.13;;;14.50;99.90;;;;;;5091693;28;20225;-80
2023/01/02 05:04:20;;;;;;;5.20;2.23;;;14.40;99.90;;;;;;5093077;28;20219;-79
2023/01/02 05:06:45;;;;;;;3.10;2.07;;;14.50;99.90;;;;;;5100366;28;20197;-78
2023/01/02 05:09:11;;;;;;;3.47;1.97;;;14.40;99.90;;;;;;5097681;28;20229;-79
2023/01/02 05:11:36;;;;;;;4.50;1.80;;;14.40;99.90;;;;;;5081338;28;20178;-80
2023/01/02 05:14:02;;;;;;;3.20;2.43;;;14.40;99.90;;;;;;5081481;28;20178;-79
2023/01/02 05:16:27;;;;;;;3.47;2.20;;;14.40;99.90;;;;;;5078114;28;20198;-79
2023/01/02 05:18:53;;;;;;;4.03;2.00;;;14.50;99.90;;;;;;5079734;28;20166;-78
2023/01/02 05:24:03;;;;;;;7.30;2.07;;;14.40;99.90;;;;;;5082339;28;20226;-79
2023/01/02 05:26:31;;;;;;;5.20;1.63;;;14.40;99.90;;;;;;5081729;28;20425;-79
2023/01/02 05:28:57;;;;;;;7.53;1.70;;;14.40;99.90;;;;;;5079531;28;20409;-79
2023/01/02 05:31:23;;;;;;;2.10;1.80;;;14.30;99.90;;;;;;5082880;28;20752;-79
2023/01/02 05:33:56;;;;;;;4.70;1.90;;;14.40;99.90;;;;;;5082478;28;20419;-79
2023/01/02 05:36:24;;;;;;;4.17;1.93;;;14.30;99.90;;;;;;5080527;28;20284;-78
2023/01/02 05:38:51;;;;;;;3.00;1.60;;;14.40;99.90;;;;;;5077541;28;20996;-79
2023/01/02 05:41:18;;;;;;;1.97;1.77;;;14.40;99.90;;;;;;5075606;28;20476;-79
2023/01/02 05:43:43;;;;;;;4.27;2.00;;;14.40;99.90;;;;;;5085471;28;20445;-78
2023/01/02 05:46:13;;;;;;;5.30;1.73;;;14.40;99.90;;;;;;5095029;28;20510;-79
2023/01/02 05:48:39;;;;;;;5.00;1.90;;;14.40;99.90;;;;;;5093176;28;20161;-79
2023/01/02 05:51:07;;;;;;;2.53;1.80;;;14.30;99.90;;;;;;5093133;28;20400;-79
2023/01/02 05:53:34;;;;;;;4.90;2.17;;;14.30;99.90;;;;;;5096699;28;20447;-79
2023/01/02 05:56:12;;;;;;;6.10;2.20;;;14.30;99.90;;;;;;5098299;28;20949;-79
2023/01/02 05:58:41;;;;;;;4.60;2.13;;;14.30;99.90;;;;;;5079960;28;20419;-80
2023/01/02 06:01:09;;;;;;;4.40;2.27;;;14.30;99.90;;;;;;5071698;28;20461;-80
2023/01/02 06:03:35;;;;;;;2.93;2.50;;;14.30;99.90;;;;;;5081163;28;20428;-79
2023/01/02 06:06:09;;;;;;;2.57;1.77;;;14.30;99.90;;;;;;5080083;28;20448;-79
2023/01/02 06:08:36;;;;;;;3.60;1.80;;;14.40;99.90;;;;;;5095815;28;20254;-79
2023/01/02 06:11:03;;;;;;;6.60;2.33;;;14.40;99.90;;;;;;5101937;28;20427;-79
2023/01/02 06:13:29;;;;;;;3.77;2.03;;;14.40;99.90;;;;;;5102726;28;20459;-79
2023/01/02 06:15:56;;;;;;;6.70;2.40;;;14.30;99.90;;;;;;5104489;28;20424;-79
2023/01/02 06:18:22;;;;;;;2.83;1.90;;;14.40;99.90;;;;;;5103149;28;20760;-79
2023/01/02 06:20:48;;;;;;;3.67;2.30;;;14.40;99.90;;;;;;5098640;28;20447;-79
2023/01/02 06:23:14;;;;;;;3.17;1.90;;;14.30;99.90;;;;;;5082463;28;20442;-78
2023/01/02 06:25:39;;;;;;;4.70;2.47;;;14.30;99.90;;;;;;5082458;28;20197;-78
2023/01/02 06:28:05;;;;;;;5.57;1.80;;;14.30;99.90;;;;;;5079043;28;20420;-78
2023/01/02 06:30:30;;;;;;;3.40;2.10;;;14.40;99.90;;;;;;5081628;28;20178;-78
2023/01/02 06:32:56;;;;;;;6.50;2.57;;;14.40;99.90;;;;;;5081008;28;20682;-79
2023/01/02 06:35:21;;;;;;;10.80;1.70;;;14.40;99.90;;;;;;5083055;28;20186;-79
2023/01/02 06:37:47;;;;;;;5.77;2.20;;;14.40;99.90;;;;;;5083835;28;20245;-76
2023/01/02 06:40:13;;;;;;;3.30;1.73;;;14.40;99.90;;;;;;5086628;28;20174;-79
2023/01/02 06:42:38;;;;;;;5.17;1.67;;;14.40;99.90;;;;;;5085597;28;20178;-79
2023/01/02 06:45:04;;;;;;;5.50;1.77;;;14.40;99.90;;;;;;5085930;28;20171;-79
2023/01/02 06:47:30;;;;;;;3.10;1.80;;;14.40;99.90;;;;;;5086639;28;20204;-79
2023/01/02 06:49:56;;;;;;;2.70;2.00;;;14.40;99.90;;;;;;5086121;28;20412;-79
2023/01/02 06:52:22;;;;;;;3.97;1.70;;;14.30;99.90;;;;;;5087537;28;20758;-79
2023/01/02 06:54:47;;;;;;;3.70;1.93;;;14.30;99.90;;;;;;5101781;28;20165;-79
2023/01/02 06:57:13;;;;;;;12.47;1.77;;;14.30;99.90;;;;;;5102667;28;20954;-78
2023/01/02 06:59:38;;;;;;;6.50;3.03;;;14.20;99.90;;;;;;5103693;28;20190;-79
2023/01/02 07:02:04;;;;;;;3.93;1.70;;;14.20;99.90;;;;;;5105475;28;20175;-78
2023/01/02 07:04:29;;;;;;;10.60;1.67;;;14.20;99.90;;;;;;5106239;28;20177;-79
2023/01/02 07:06:55;;;;;;;12.53;1.80;;;14.10;99.90;;;;;;5105586;28;20331;-79
2023/01/02 07:09:20;;;;;;;7.80;2.33;;;14.10;99.90;;;;;;5105097;28;20196;-79
2023/01/02 07:11:46;;;;;;;4.00;1.57;;;14.10;99.90;;;;;;5101415;28;20194;-79
2023/01/02 07:14:11;;;;;;;7.07;2.07;;;13.90;99.90;;;;;;5084075;28;20182;-79
2023/01/02 07:16:37;;;;;;;5.47;2.27;;;13.70;99.90;;;;;;5084590;28;20186;-79
2023/01/02 07:19:02;;;;;;;5.63;1.90;;;13.50;99.90;;;;;;5086622;28;20170;-79
2023/01/02 07:21:29;;;;;;;3.20;1.77;;;13.40;99.90;;;;;;5089573;28;20185;-80
2023/01/02 07:23:54;;;;;;;4.93;3.60;;;13.20;99.90;;;;;;5107164;28;20177;-79
2023/01/02 07:26:20;;;;;;;3.80;2.60;;;13.20;99.90;;;;;;5104297;28;20509;-80
2023/01/02 07:28:46;;;;;;;4.10;2.33;;;13.10;99.90;;;;;;5103714;28;20201;-80
2023/01/02 07:31:14;;;;;;;3.43;2.03;;;13.10;99.90;;;;;;5103154;28;20169;-80
2023/01/02 07:33:40;;;;;;;4.93;2.57;;;13.00;99.90;;;;;;5100342;28;20475;-79
2023/01/02 07:36:09;;;;;;;3.90;2.60;;;13.00;99.90;;;;;;5083631;28;20420;-79
2023/01/02 07:38:36;;;;;;;3.03;2.17;;;12.90;99.90;;;;;;5083667;28;20689;-79
2023/01/02 07:41:02;;;;;;;4.07;2.27;;;12.80;99.90;;;;;;5082845;28;20420;-79
2023/01/02 07:43:28;;;;;;;3.67;1.97;;;12.80;99.90;;;;;;5086240;28;20419;-79
2023/01/02 07:45:53;;;;;;;5.70;2.37;;;12.80;99.90;;;;;;5105001;28;20190;-79
2023/01/02 07:48:19;;;;;;;4.10;2.20;;;12.90;99.90;;;;;;5103898;28;20170;-80
2023/01/02 07:50:45;;;;;;;5.30;2.00;;;12.80;99.90;;;;;;5103670;28;20233;-80
2023/01/02 07:53:11;;;;;;;3.63;1.97;;;13.00;99.90;;;;;;5105235;28;20197;-79
2023/01/02 07:55:36;;;;;;;9.30;2.77;;;13.10;99.90;;;;;;5099232;28;20484;-80
2023/01/02 07:58:02;;;;;;;7.97;2.43;;;13.10;99.90;;;;;;5082661;28;20241;-78
2023/01/02 08:00:27;;;;;;;4.80;2.03;;;13.20;99.90;;;;;;5083489;28;20227;-79
2023/01/02 08:02:53;;;;;;;2.87;2.00;;;13.10;99.90;;;;;;5083157;28;20175;-79
2023/01/02 08:05:20;;;;;;;5.50;2.73;;;13.00;99.90;;;;;;5083703;28;20182;-79
2023/01/02 08:07:45;;;;;;;5.40;2.73;;;12.90;99.90;;;;;;5083741;28;20949;-79
2023/01/02 08:10:11;;;;;;;3.30;1.80;;;12.80;99.90;;;;;;5082960;28;20409;-79
2023/01/02 08:12:37;;;;;;;3.73;1.93;;;12.90;99.90;;;;;;5083054;28;20240;-79
2023/01/02 08:15:03;;;;;;;2.40;1.90;;;13.00;99.90;;;;;;5082336;28;20774;-79
2023/01/02 08:17:30;;;;;;;4.50;1.83;;;13.10;99.90;;;;;;5084613;28;20540;-78
2023/01/02 08:19:55;;;;;;;8.77;2.30;;;13.20;99.90;;;;;;5102665;28;20829;-79
2023/01/02 08:22:21;;;;;;;5.83;2.80;;;13.20;99.90;;;;;;5101177;28;20419;-79
2023/01/02 08:24:47;;;;;;;5.40;2.47;;;13.10;99.90;;;;;;5085491;28;20238;-78
2023/01/02 08:27:12;;;;;;;6.67;2.83;;;13.00;99.90;;;;;;5082406;28;20219;-78
2023/01/02 08:29:38;;;;;;;6.27;2.50;;;12.90;99.90;;;;;;5082861;28;20224;-79
2023/01/02 08:32:04;;;;;;;3.80;2.27;;;12.80;99.90;;;;;;5085026;28;20217;-79
2023/01/02 08:34:29;;;;;;;5.00;2.33;;;12.80;99.90;;;;;;5083237;28;20178;-79
2023/01/02 08:36:55;;;;;;;6.53;2.20;;;12.80;99.90;;;;;;5083317;28;20198;-79
2023/01/02 08:39:20;;;;;;;4.50;2.40;;;12.80;99.90;;;;;;5083996;28;20198;-79
2023/01/02 08:41:46;;;;;;;4.40;2.30;;;12.70;99.90;;;;;;5083454;28;20170;-79
2023/01/02 08:44:11;;;;;;;11.53;2.20;;;12.80;99.90;;;;;;5081172;28;20178;-77
2023/01/02 08:46:37;;;;;;;4.07;2.30;;;12.70;99.90;;;;;;5083160;28;20194;-78
2023/01/02 08:49:02;;;;;;;11.83;2.97;;;12.60;99.90;;;;;;5083955;28;20170;-80
2023/01/02 08:51:28;;;;;;;7.17;2.43;;;12.60;99.90;;;;;;5084147;28;20170;-79
2023/01/02 08:53:54;;;;;;;4.53;2.20;;;12.60;99.90;;;;;;5083298;28;20256;-78
2023/01/02 08:56:23;;;;;;;2.90;1.70;;;12.60;99.90;;;;;;5081127;28;20186;-78
2023/01/02 08:59:01;;;;;;;3.90;2.33;;;12.60;99.90;;;;;;5079673;28;20178;-78
2023/01/02 09:01:28;;;;;;;4.03;2.30;;;12.70;99.90;;;;;;5082904;28;20396;-79
2023/01/02 09:03:54;;;;;;;2.43;2.23;;;12.70;99.90;;;;;;5079654;28;20968;-78
2023/01/02 09:06:20;;;;;;;7.63;1.87;;;12.70;99.90;;;;;;5081576;28;20428;-78
2023/01/02 09:08:46;;;;;;;4.77;1.40;;;12.80;99.90;;;;;;5080189;28;20404;-79
2023/01/02 09:11:14;;;;;;;2.33;1.90;;;12.70;99.90;;;;;;5096910;28;20423;-79
2023/01/02 09:13:40;;;;;;;4.70;1.80;;;12.80;99.90;;;;;;5099977;28;20229;-79
2023/01/02 09:16:06;;;;;;;3.50;2.20;;;12.80;99.90;;;;;;5101016;28;20434;-79
2023/01/02 09:18:31;;;;;;;1.87;1.40;;;12.70;99.90;;;;;;5095921;28;20417;-79
2023/01/02 09:20:57;;;;;;;4.00;2.20;;;12.70;99.90;;;;;;5077918;28;20416;-79
2023/01/02 09:23:22;;;;;;;1.60;1.07;;;12.80;99.90;;;;;;5079337;28;20177;-79
2023/01/02 09:25:48;;;;;;;4.03;1.17;;;12.80;99.90;;;;;;5080443;28;20185;-78
2023/01/02 09:28:13;;;;;;;3.10;1.40;;;12.80;99.90;;;;;;5080143;28;20174;-79
2023/01/02 09:30:39;;;;;;;3.47;1.30;;;12.90;99.90;;;;;;5080870;28;20192;-79
2023/01/02 09:33:04;;;;;;;2.97;1.10;;;12.90;99.90;;;;;;5077814;28;20190;-78
2023/01/02 09:35:30;;;;;;;3.27;1.10;;;12.90;99.90;;;;;;5094057;28;20235;-79
2023/01/02 09:37:55;;;;;;;1.60;1.40;;;12.90;99.90;;;;;;5080150;28;20170;-79
2023/01/02 09:40:22;;;;;;;1.47;0.97;;;13.00;99.90;;;;;;5078405;28;20170;-79
2023/01/02 09:42:49;;;;;;;2.77;1.20;;;13.00;99.90;;;;;;5079433;28;20167;-79
2023/01/02 09:45:15;;;;;;;1.60;1.10;;;13.00;99.90;;;;;;5098575;28;20448;-78
2023/01/02 09:47:44;;;;;;;1.40;1.10;;;13.20;99.90;;;;;;5098493;28;20419;-78
2023/01/02 09:50:31;;;;;;;3.57;0.80;;;13.20;99.90;;;;;;5101003;28;20435;-79
2023/01/02 09:52:59;;;;;;;1.23;0.77;;;13.20;99.90;;;;;;5098323;28;20456;-79
2023/01/02 09:55:43;;;;;;;1.90;0.90;;;13.00;99.90;;;;;;5093912;28;20447;-79
2023/01/02 09:58:22;;;;;;;1.30;0.80;;;13.00;99.90;;;;;;5078102;28;20413;-78
2023/01/02 10:00:49;;;;;;;2.10;1.03;;;13.00;99.90;;;;;;5079356;28;20958;-80
2023/01/02 10:03:39;;;;;;;1.70;1.10;;;12.80;99.90;;;;;;5079265;28;20417;-79
2023/01/02 10:06:10;;;;;;;1.80;1.10;;;12.80;99.90;;;;;;5085547;28;20450;-77
2023/01/02 10:08:53;;;;;;;1.70;1.23;;;12.90;99.90;;;;;;5096621;28;20422;-78
2023/01/02 10:11:53;;;;;;;1.43;0.80;;;13.00;99.90;;;;;;5100153;28;20483;-80
2023/01/02 10:14:21;;;;;;;2.07;1.23;;;12.90;99.90;;;;;;5102760;28;20520;-79
2023/01/02 10:16:52;;;;;;;1.30;0.93;;;12.90;99.90;;;;;;5102782;28;20433;-79
2023/01/02 10:19:41;;;;;;;1.60;1.10;;;12.90;99.90;;;;;;5084152;28;20413;-79
2023/01/02 10:22:12;;;;;;;1.70;1.20;;;12.80;99.90;;;;;;5081547;28;20416;-79
2023/01/02 10:24:46;;;;;;;2.27;1.10;;;12.70;99.90;;;;;;5080798;28;20412;-79
2023/01/02 10:27:17;;;;;;;1.83;1.30;;;12.80;99.90;;;;;;5116787;28;20444;-79
2023/01/02 10:29:50;;;;;;;1.50;1.20;;;12.80;99.90;;;;;;5082646;28;20420;-79
2023/01/02 10:32:19;;;;;;;1.30;0.93;;;12.60;99.90;;;;;;5084011;28;20491;-78
2023/01/02 10:35:07;;;;;;;5.13;1.63;;;12.50;99.90;;;;;;5084438;28;20404;-79
2023/01/02 10:37:34;;;;;;;1.67;1.13;;;12.50;99.90;;;;;;5085814;28;20404;-79
2023/01/02 10:39:59;;;;;;;2.60;1.53;;;12.50;99.90;;;;;;5084066;28;20412;-78
2023/01/02 10:42:25;;;;;;;2.33;1.20;;;12.50;99.90;;;;;;5085276;28;20825;-78
2023/01/02 10:44:51;;;;;;;2.03;1.37;;;12.50;99.90;;;;;;5086396;28;20216;-78
2023/01/02 10:47:36;;;;;;;2.80;1.70;;;12.60;99.90;;;;;;5083144;28;20185;-78
2023/01/02 10:50:17;;;;;;;3.30;1.97;;;12.70;99.90;;;;;;5085515;28;20400;-79
2023/01/02 10:52:45;;;;;;;2.90;1.73;;;12.70;99.90;;;;;;5095529;28;20679;-77
2023/01/02 10:55:11;;;;;;;2.93;1.53;;;12.80;99.90;;;;;;5103887;28;20441;-78
2023/01/02 10:57:43;;;;;;;3.33;1.60;;;13.00;99.90;;;;;;5103462;28;20834;-78
2023/01/02 11:00:18;;;;;;;2.40;1.73;;;12.90;99.90;;;;;;5102401;28;20169;-78
2023/01/02 11:02:50;;;;;;;2.60;1.83;;;13.00;99.90;;;;;;5097993;28;20442;-79
2023/01/02 11:05:25;;;;;;;2.53;1.80;;;13.20;99.90;;;;;;5097606;28;20436;-79
2023/01/02 11:07:52;;;;;;;2.43;1.67;;;13.30;99.90;;;;;;5082681;28;20416;-79
2023/01/02 11:10:28;;;;;;;6.13;2.20;;;13.40;99.90;;;;;;5082270;28;20929;-79
2023/01/02 11:12:54;;;;;;;4.80;1.50;;;13.40;99.90;;;;;;5081355;28;20463;-79
2023/01/02 11:15:29;;;;;;;4.07;2.27;;;13.30;99.90;;;;;;5084654;28;20436;-80
2023/01/02 11:17:57;;;;;;;3.63;1.50;;;13.30;99.90;;;;;;5084133;28;20412;-79
2023/01/02 11:20:36;;;;;;;2.83;1.50;;;13.30;99.90;;;;;;5082435;28;20421;-78
2023/01/02 11:23:03;;;;;;;3.03;1.87;;;13.20;99.90;;;;;;5083845;28;20416;-78
2023/01/02 11:25:39;;;;;;;2.43;1.53;;;13.20;99.90;;;;;;5085276;28;20436;-79
2023/01/02 11:28:05;;;;;;;2.60;1.73;;;13.20;99.90;;;;;;5103137;28;20896;-79
2023/01/02 11:30:36;;;;;;;2.83;2.10;;;13.20;99.90;;;;;;5101428;28;20932;-79
2023/01/02 11:33:18;;;;;;;2.83;2.37;;;13.10;99.90;;;;;;5102606;28;20459;-79
2023/01/02 11:35:50;;;;;;;2.67;1.90;;;13.00;99.90;;;;;;5102890;28;20431;-79
2023/01/02 11:38:25;;;;;;;3.90;1.70;;;13.00;99.90;;;;;;5099059;28;20416;-79
2023/01/02 11:44:32;;;;;;;1.97;1.30;;;12.90;99.90;;;;;;5076360;28;20403;-78
2023/01/02 11:46:59;;;;;;;2.90;2.10;;;12.90;99.90;;;;;;5076316;28;20517;-79
2023/01/02 11:49:41;;;;;;;2.63;1.80;;;12.70;99.90;;;;;;5100351;28;20435;-79
2023/01/02 11:52:12;;;;;;;3.37;2.00;;;12.70;99.90;;;;;;5102361;28;20455;-78
2023/01/02 11:54:46;;;;;;;2.90;2.27;;;12.60;99.90;;;;;;5103142;28;20459;-79
2023/01/02 11:57:42;;;;;;;3.73;2.00;;;12.60;99.90;;;;;;5084304;28;20447;-79
2023/01/02 12:00:11;;;;;;;3.07;2.00;;;12.70;99.90;;;;;;5082955;28;20439;-79
2023/01/02 12:02:49;;;;;;;4.00;2.60;;;12.70;99.90;;;;;;5083008;28;20422;-79
2023/01/02 12:05:31;;;;;;;2.50;1.33;;;12.70;99.90;;;;;;5081867;28;20481;-79
2023/01/02 12:08:07;;;;;;;3.80;2.07;;;12.80;99.90;;;;;;5080744;28;20837;-79
2023/01/02 12:10:46;;;;;;;3.57;2.30;;;13.00;99.90;;;;;;5082739;28;20439;-79
2023/01/02 12:13:50;;;;;;;3.37;1.63;;;13.10;99.90;;;;;;5081929;28;20486;-79
2023/01/02 12:16:24;;;;;;;2.20;1.47;;;13.20;99.90;;;;;;5081791;28;20432;-79
2023/01/02 12:19:17;;;;;;;1.63;1.53;;;13.20;99.90;;;;;;5081982;28;20480;-79
2023/01/02 12:22:05;;;;;;;2.00;1.40;;;13.00;99.90;;;;;;5083457;28;20389;-79
2023/01/02 12:24:37;;;;;;;5.13;2.23;;;13.00;99.90;;;;;;5098036;28;20404;-81
2023/01/02 12:27:25;;;;;;;2.03;1.60;;;13.00;99.90;;;;;;5073839;28;20420;-79
2023/01/02 12:30:03;;;;;;;1.87;1.30;;;13.10;99.90;;;;;;5074100;28;20491;-78
2023/01/02 12:32:44;;;;;;;1.67;1.43;;;13.30;99.90;;;;;;5076874;28;20509;-78
2023/01/02 12:35:15;;;;;;;2.57;1.47;;;13.40;99.90;;;;;;5076785;28;20436;-77
2023/01/02 12:37:56;;;;;;;1.57;1.10;;;13.40;99.90;;;;;;5111565;28;20558;-78
2023/01/02 12:40:43;;;;;;;3.10;2.30;;;13.50;99.90;;;;;;5079182;28;20988;-77
2023/01/02 12:43:20;;;;;;;4.57;3.10;;;13.70;99.90;;;;;;5077790;28;20439;-78
2023/01/02 12:46:04;;;;;;;1.90;1.47;;;13.80;99.90;;;;;;5075071;28;20432;-77
2023/01/02 12:49:00;;;;;;;3.50;1.23;;;13.90;99.90;;;;;;5079516;28;20416;-78
2023/01/02 12:51:36;;;;;;;1.60;1.10;;;13.90;99.90;;;;;;5077226;28;20840;-78
2023/01/02 12:54:51;;;;;;;1.40;1.13;;;13.90;99.90;;;;;;5092673;28;20455;-79
2023/01/02 12:57:29;;;;;;;4.53;1.00;;;13.90;99.90;;;;;;5024887;28;20505;-79
2023/01/02 13:00:19;;;;;;;2.23;1.17;;;13.80;99.90;;;;;;5086289;28;20407;-79
2023/01/02 13:03:13;;;;;;;1.47;1.37;;;13.90;99.90;;;;;;5093572;28;20387;-80
2023/01/02 13:05:47;;;;;;;1.50;1.30;;;13.80;99.90;;;;;;5084166;28;20483;-79
2023/01/02 13:08:28;;;;;;;1.63;1.20;;;13.70;99.90;;;;;;5106180;28;20413;-81
2023/01/02 13:10:59;;;;;;;1.40;1.00;;;13.50;99.90;;;;;;5079684;28;20427;-79